Flight Track Log - Related Links

Times and Time Zones

All times are in EDT time to prevent confusion due to time zone crossing. See the ASQ5313 flight status page for this flight to view local times or setup timezone preferences in your user account.

Time Position Orientation Groundspeed Altitude Reporting Facility
EDT Latitude Longitude Course Direction KTS MPH feet Rate Location/Type
Thu 06:00:23 AM 35.1392 -77.0753 259° West 269 310 4,100  Level Washington Center
Thu 06:01:24 AM 35.1108 -77.1636 249° West 281 323 6,400 2,459 Climbing Washington Center
Thu 06:02:25 AM 35.0803 -77.2544 248° West 286 329 9,100 2,150 Climbing Washington Center
Thu 06:03:24 AM 35.0478 -77.3478 247° West 297 342 10,700 1,462 Climbing Washington Center
Thu 06:04:00 AM 34.8628 -77.6650 246° West  Level FlightAware Approximate
Thu 06:04:24 AM 35.0128 -77.4561 248° West 317 365 12,000  Level Washington Center
Thu 06:05:00 AM 34.8301 -77.7698 259° West  Level FlightAware Approximate
Thu 06:05:24 AM 34.9733 -77.5692 247° West 349 402 13,500  Level Washington Center
Thu 06:06:24 AM 34.9297 -77.6897 246° West 354 407 15,000 1,513 Climbing Washington Center
Thu 06:07:23 AM 34.8919 -77.8053 248° West 360 414 16,500 1,289 Climbing Washington Center
Thu 06:08:25 AM 34.8503 -77.9231 247° West 374 430 17,600 1,008 Climbing Washington Center
Thu 06:09:22 AM 34.8103 -78.0433 248° West 379 436 18,500 974 Climbing Washington Center
Thu 06:11:36 AM 34.7172 -78.3161 248° West 391 450 20,700 928 Climbing Jacksonville Center
Thu 06:12:36 AM 34.6831 -78.4114 246° West 391 450 21,500 1,000 Climbing Jacksonville Center
Thu 06:13:36 AM 34.6314 -78.5428 244° Southwest 391 450 22,700 1,100 Climbing Jacksonville Center
Thu 06:14:36 AM 34.5894 -78.6633 247° West 391 450 23,700 1,000 Climbing Jacksonville Center
Thu 06:15:36 AM 34.5417 -78.7917 246° West 391 450 24,700 750 Climbing Jacksonville Center
Thu 06:16:36 AM 34.5072 -78.8917 247° West 391 450 25,200 550 Climbing Jacksonville Center
Thu 06:17:36 AM 34.4556 -79.0425 247° West 396 456 25,800 400 Climbing Jacksonville Center
Thu 06:18:36 AM 34.4094 -79.1678 246° West 404 465 26,000 100 Climbing Jacksonville Center
Thu 06:19:36 AM 34.3631 -79.3006 247° West 411 473 26,000  Level Jacksonville Center
Thu 06:20:36 AM 34.3106 -79.4336 244° Southwest 426 490 26,000  Level Jacksonville Center
Thu 06:21:36 AM 34.2622 -79.5711 247° West 431 496 26,000  Level Jacksonville Center
Thu 06:22:36 AM 34.2219 -79.7133 251° West 442 509 26,000  Level Jacksonville Center
Thu 06:23:36 AM 34.1817 -79.8578 251° West 453 521 26,000  Level Jacksonville Center
Thu 06:24:36 AM 34.1414 -80.0022 251° West 460 529 26,000  Level Jacksonville Center
Thu 06:25:36 AM 34.1050 -80.1489 253° West 460 529 26,000  Level Jacksonville Center
Thu 06:26:36 AM 34.0664 -80.2931 252° West 460 529 26,000  Level Jacksonville Center
Thu 06:27:36 AM 34.0256 -80.4419 252° West 467 537 26,000  Level Jacksonville Center
Thu 06:28:36 AM 33.9864 -80.5858 252° West 467 537 26,000  Level Jacksonville Center
Thu 06:29:36 AM 33.9472 -80.7297 252° West 467 537 26,000  Level Jacksonville Center
Thu 06:30:36 AM 33.9081 -80.8756 252° West 467 537 26,000  Level Jacksonville Center
Thu 06:31:37 AM 33.8683 -81.0217 252° West 467 537 26,000  Level Jacksonville Center
Thu 06:32:36 AM 33.8247 -81.1675 250° West 467 537 26,000  Level Jacksonville Center
Thu 06:33:36 AM 33.7828 -81.3108 251° West 467 537 26,000 -287 Level Jacksonville Center
Thu 06:35:44 AM 33.6931 -81.6069 250° West 466 536 25,100 -447 Descending Atlanta Center
Thu 06:36:44 AM 33.6478 -81.7581 250° West 473 544 24,600 -500 Descending Atlanta Center
Thu 06:37:44 AM 33.6025 -81.9089 250° West 479 551 24,100 -300 Descending Atlanta Center
Thu 06:38:44 AM 33.5569 -82.0544 249° West 479 551 24,000 -50 Descending Atlanta Center
Thu 06:39:44 AM 33.5133 -82.2000 250° West 473 544 24,000  Level Atlanta Center
Thu 06:40:44 AM 33.4636 -82.3656 250° West 478 550 24,000  Level Atlanta Center
Thu 06:41:44 AM 33.4236 -82.5081 251° West 468 539 24,000  Level Atlanta Center
Thu 06:42:44 AM 33.3792 -82.6383 248° West 468 539 24,000  Level Atlanta Center
Thu 06:43:44 AM 33.3347 -82.7806 250° West 463 533 24,000  Level Atlanta Center
Thu 06:44:44 AM 33.2944 -82.9231 251° West 463 533 24,000  Level Atlanta Center
Thu 06:45:44 AM 33.2497 -83.0650 249° West 469 540 24,000 -250 Level Atlanta Center
Thu 06:46:44 AM 33.2319 -83.2144 262° West 456 525 23,500 -1,500 Descending Atlanta Center
Thu 06:47:44 AM 33.2247 -83.3683 267° West 462 532 21,000 -2,450 Descending Atlanta Center
Thu 06:48:44 AM 33.2214 -83.5272 269° West 455 524 18,600 -2,300 Descending Atlanta Center
Thu 06:49:44 AM 33.2175 -83.6664 268° West 437 503 16,400 -2,265 Descending Atlanta Center
Thu 06:50:22 AM 33.2167 -83.7500 269° West 422 486 14,900 -1,469 Descending Atlanta TRACON
Thu 06:51:22 AM 33.2667 -83.8667 297° West 404 465 14,000 -850 Descending Atlanta TRACON
Thu 06:52:22 AM 33.3333 -83.9833 304° West 402 463 13,200 -889 Descending Atlanta TRACON
Thu 06:53:10 AM 33.3833 -84.0500 312° West 370 426 12,400 -878 Descending Atlanta TRACON
Thu 06:53:44 AM 33.4144 -84.1086 302° West 375 432 12,000 -333 Descending Atlanta Center
Thu 06:54:22 AM 33.4500 -84.1500 316° Northwest 296 341 12,000  Level Atlanta TRACON
Thu 06:56:22 AM 33.5500 -84.3167 306° West 264 304 12,000 -467 Level Atlanta TRACON
Thu 06:57:22 AM 33.5500 -84.4000 270° West 258 297 10,600 -1,700 Descending Atlanta TRACON
Thu 06:58:22 AM 33.5500 -84.4833 270° West 259 298 8,600 -2,100 Descending Atlanta TRACON
Thu 06:59:22 AM 33.5500 -84.5667 270° West 248 285 6,400 -2,200 Descending Atlanta TRACON
Thu 07:00:22 AM 33.5500 -84.6500 270° West 246 283 4,200 -1,700 Descending Atlanta TRACON
Thu 07:01:22 AM 33.5667 -84.7167 287° West 250 288 3,000 -400 Descending Atlanta TRACON
Thu 07:03:22 AM 33.6333 -84.6500 40° Northeast 201 231 3,000  Level Atlanta TRACON
Thu 07:04:22 AM 33.6333 -84.5833 90° East 198 228 3,000 -350 Level Atlanta TRACON
Thu 07:05:22 AM 33.6333 -84.5333 90° East 173 199 2,300 -750 Descending Atlanta TRACON
Thu 07:06:22 AM 33.6333 -84.4833 90° East 136 157 1,500 -800 Descending Atlanta TRACON
Thu 07:08:00 AM 33.6367 -84.4279 64° Northeast  Level Estimated
Thu 07:15:00 AM 33.6367 -84.4279 64° Northeast  Level Estimated

Login

Don't have an account? Register now (free) for customized features, flight alerts, and more!